Time;durP1;ratioP1;P1;durP2;ratioP2;P2;SDS_P1;SDS_P2;PMS_P1;PMS_P2;Temp;Humidity;BMP_temperature;BMP_pressure;BME280_temperature;BME280_humidity;BME280_pressure;Samples;Min_cycle;Max_cycle;Signal;HPM_P1;HPM_P2
2023/02/02 00:01:44;;;;;;;25.92;14.80;;;179.20;2252.80;;;;;;5080526;28;20029;-82
2023/02/02 00:04:19;;;;;;;33.15;19.67;;;179.20;2252.80;;;;;;5081336;28;20056;-83
2023/02/02 00:06:45;;;;;;;20.95;13.18;;;179.20;2252.80;;;;;;5081107;28;20020;-83
2023/02/02 00:09:14;;;;;;;19.77;12.38;;;154.50;2252.80;;;;;;5080283;28;20055;-83
2023/02/02 00:11:41;;;;;;;24.23;13.55;;;179.20;2252.80;;;;;;5079247;28;20476;-84
2023/02/02 00:14:07;;;;;;;28.38;14.15;;;179.20;2252.80;;;;;;5075717;28;20043;-80
2023/02/02 00:16:58;;;;;;;21.80;12.95;;;179.20;2252.80;;;;;;5076255;28;20033;-87
2023/02/02 00:19:30;;;;;;;22.15;12.63;;;179.20;2252.80;;;;;;5097147;28;20030;-86
2023/02/02 00:21:56;;;;;;;21.48;13.55;;;179.20;2252.80;;;;;;5096054;28;20028;-85
2023/02/02 00:24:23;;;;;;;23.13;13.48;;;154.50;2252.80;;;;;;5096398;28;20024;-84
2023/02/02 00:26:53;;;;;;;17.48;10.70;;;154.50;2252.80;;;;;;5079183;28;20556;-86
2023/02/02 00:29:21;;;;;;;25.05;13.35;;;154.50;2252.80;;;;;;5095327;28;20425;-86
2023/02/02 00:31:47;;;;;;;34.78;17.20;;;154.50;2252.80;;;;;;5096075;28;20468;-85
2023/02/02 00:34:14;;;;;;;34.47;18.30;;;154.50;2252.80;;;;;;5095754;28;20032;-86
2023/02/02 00:36:40;;;;;;;28.30;15.15;;;154.50;2252.80;;;;;;5096322;28;20376;-87
2023/02/02 00:39:06;;;;;;;22.92;12.90;;;154.50;2252.80;;;;;;5096704;28;20031;-85
2023/02/02 00:41:32;;;;;;;22.85;12.98;;;179.20;2252.80;;;;;;5096208;28;20426;-86
2023/02/02 00:46:43;;;;;;;27.50;14.73;;;154.40;2252.80;;;;;;5096821;28;20074;-87
2023/02/02 00:49:09;;;;;;;28.15;14.18;;;154.40;2252.80;;;;;;5095457;28;20020;-87
2023/02/02 00:51:35;;;;;;;18.30;10.30;;;154.30;2252.80;;;;;;5095758;28;20059;-87
2023/02/02 00:54:02;;;;;;;16.15;9.48;;;154.10;2252.80;;;;;;5095457;28;20040;-87
2023/02/02 00:56:28;;;;;;;15.20;9.68;;;154.30;2252.80;;;;;;5095338;28;20024;-86
2023/02/02 00:58:53;;;;;;;16.92;8.45;;;154.30;2252.80;;;;;;5095529;28;20445;-87
2023/02/02 01:01:20;;;;;;;16.45;9.82;;;154.30;2252.80;;;;;;5081087;28;20055;-87
2023/02/02 01:03:47;;;;;;;16.00;9.45;;;154.30;2252.80;;;;;;5074899;28;20056;-85
2023/02/02 01:06:13;;;;;;;18.02;11.75;;;154.30;2252.80;;;;;;5074686;28;20024;-87
2023/02/02 01:08:39;;;;;;;19.02;11.75;;;154.30;2252.80;;;;;;5075147;28;20031;-87
2023/02/02 01:11:05;;;;;;;17.90;11.38;;;154.30;2252.80;;;;;;5074718;28;20392;-87
2023/02/02 01:13:32;;;;;;;20.30;13.63;;;154.30;2252.80;;;;;;5075025;28;20128;-87
2023/02/02 01:15:59;;;;;;;17.08;10.10;;;154.30;2252.80;;;;;;5075238;28;20426;-86
2023/02/02 01:18:25;;;;;;;14.13;8.75;;;154.30;2252.80;;;;;;5074385;28;20050;-87
2023/02/02 01:21:05;;;;;;;12.57;8.05;;;154.30;2252.80;;;;;;5074709;28;20025;-89
2023/02/02 01:23:33;;;;;;;15.25;8.35;;;154.40;2252.80;;;;;;5074935;28;20082;-87
2023/02/02 01:26:00;;;;;;;19.90;10.88;;;154.30;2252.80;;;;;;5075058;28;20024;-86
2023/02/02 01:28:27;;;;;;;21.38;10.80;;;154.40;2252.80;;;;;;5074385;28;20036;-87
2023/02/02 01:30:54;;;;;;;18.90;9.48;;;154.20;2252.80;;;;;;5122441;27;20047;-86
2023/02/02 01:33:20;;;;;;;16.63;9.40;;;154.40;2252.80;;;;;;5095489;28;20058;-87
2023/02/02 01:35:51;;;;;;;20.23;10.68;;;154.20;2252.80;;;;;;5095463;28;20044;-86
2023/02/02 01:38:17;;;;;;;17.45;9.65;;;154.30;2252.80;;;;;;5095281;28;20024;-86
2023/02/02 01:40:48;;;;;;;16.98;10.80;;;154.30;2252.80;;;;;;5094610;28;20535;-87
2023/02/02 01:43:40;;;;;;;16.75;9.82;;;154.20;2252.80;;;;;;5094896;28;20051;-86
2023/02/02 01:46:13;;;;;;;17.33;9.48;;;154.20;2252.80;;;;;;5084948;28;20664;-87
2023/02/02 01:48:52;;;;;;;19.30;11.23;;;154.10;2252.80;;;;;;5094307;28;20031;-88
2023/02/02 01:51:22;;;;;;;18.95;10.90;;;154.10;2252.80;;;;;;5093458;28;20027;-86
2023/02/02 01:53:50;;;;;;;19.73;11.05;;;154.20;2252.80;;;;;;5093696;28;20039;-87
2023/02/02 01:56:27;;;;;;;24.75;13.63;;;154.20;2252.80;;;;;;5093997;28;20200;-87
2023/02/02 01:58:53;;;;;;;22.05;12.77;;;154.20;2252.80;;;;;;5093766;28;20020;-89
2023/02/02 02:01:19;;;;;;;18.88;11.10;;;154.20;2252.80;;;;;;5093629;28;20024;-86
2023/02/02 02:03:45;;;;;;;17.67;10.43;;;154.20;2252.80;;;;;;5095038;28;20028;-87
2023/02/02 02:06:16;;;;;;;16.80;9.63;;;154.30;2252.80;;;;;;5093674;28;20063;-87
2023/02/02 02:08:50;;;;;;;18.83;10.77;;;154.20;2252.80;;;;;;5093639;28;20020;-86
2023/02/02 02:11:17;;;;;;;13.75;9.27;;;154.10;2252.80;;;;;;5093685;28;20151;-88
2023/02/02 02:16:47;;;;;;;12.57;9.02;;;154.10;2252.80;;;;;;5095064;28;20035;-87
2023/02/02 02:19:35;;;;;;;12.65;8.43;;;154.10;2252.80;;;;;;5093756;28;20024;-86
2023/02/02 02:28:12;;;;;;;36.28;21.38;;;153.70;2252.80;;;;;;5094910;28;20082;-87
2023/02/02 02:30:59;;;;;;;49.70;27.42;;;128.90;2252.80;;;;;;5093707;28;20035;-87
2023/02/02 02:33:35;;;;;;;48.75;25.58;;;128.80;2252.80;;;;;;5093562;28;20040;-87
2023/02/02 02:36:05;;;;;;;56.97;30.95;;;128.70;2252.80;;;;;;5093405;28;20024;-89
2023/02/02 02:38:41;;;;;;;55.17;30.33;;;128.50;2252.80;;;;;;5094233;28;20123;-88
2023/02/02 02:41:12;;;;;;;50.15;25.38;;;128.20;2252.80;;;;;;5094071;28;20024;-86
2023/02/02 02:43:42;;;;;;;49.47;27.90;;;128.10;2252.80;;;;;;5093915;28;20020;-87
2023/02/02 02:46:10;;;;;;;38.83;21.23;;;128.20;2252.80;;;;;;5093763;28;20020;-87
2023/02/02 02:48:36;;;;;;;37.30;21.20;;;128.10;2252.80;;;;;;5093572;28;20028;-88
2023/02/02 02:51:43;;;;;;;37.80;21.75;;;128.10;2252.80;;;;;;5093627;28;20529;-87
2023/02/02 02:54:21;;;;;;;43.85;24.63;;;128.00;2252.80;;;;;;5093621;28;20094;-89
2023/02/02 02:56:53;;;;;;;43.20;24.67;;;103.30;2227.20;;;;;;5093527;28;20078;-90
2023/02/02 02:59:38;;;;;;;45.13;28.33;;;103.30;2227.20;;;;;;5093980;28;20467;-88
2023/02/02 03:02:29;;;;;;;62.05;35.15;;;103.10;2227.20;;;;;;5095429;28;20525;-87
2023/02/02 03:05:00;;;;;;;45.67;26.80;;;103.00;2227.20;;;;;;5100568;28;20020;-87
2023/02/02 03:07:36;;;;;;;36.88;19.95;;;103.00;2227.20;;;;;;5100862;28;20364;-89
2023/02/02 03:10:04;;;;;;;29.70;17.17;;;102.80;2227.20;;;;;;5105892;28;20024;-82
2023/02/02 03:12:30;;;;;;;31.70;17.67;;;102.80;2227.20;;;;;;5112501;28;20131;-82
2023/02/02 03:14:55;;;;;;;28.52;16.90;;;102.50;2227.20;;;;;;5112593;28;20028;-85
2023/02/02 03:17:21;;;;;;;29.27;17.80;;;77.70;2227.20;;;;;;5098406;28;20024;-89
2023/02/02 03:19:47;;;;;;;25.73;16.75;;;77.70;2227.20;;;;;;5097528;28;20051;-89
2023/02/02 03:22:13;;;;;;;24.80;16.02;;;102.40;2227.20;;;;;;5097368;28;20028;-89
2023/02/02 03:24:38;;;;;;;27.17;15.70;;;77.70;2227.20;;;;;;5097576;28;20028;-89
2023/02/02 03:27:04;;;;;;;24.27;15.27;;;77.70;2227.20;;;;;;5097633;28;20024;-89
2023/02/02 03:29:30;;;;;;;30.15;17.13;;;102.40;2227.20;;;;;;5097370;28;20024;-89
2023/02/02 03:31:56;;;;;;;35.28;20.88;;;102.50;2227.20;;;;;;5097273;28;20030;-88
2023/02/02 03:34:21;;;;;;;48.88;27.25;;;102.50;2227.20;;;;;;5097100;28;20039;-89
2023/02/02 03:36:47;;;;;;;55.63;31.17;;;102.60;2227.20;;;;;;5097148;28;20028;-89
2023/02/02 03:39:13;;;;;;;55.72;31.30;;;102.60;2227.20;;;;;;5097171;28;20035;-89
2023/02/02 03:41:38;;;;;;;63.35;33.80;;;102.60;2227.20;;;;;;5096623;28;20024;-89
2023/02/02 03:44:04;;;;;;;61.67;36.45;;;102.60;2227.20;;;;;;5096793;28;20173;-89
2023/02/02 03:46:30;;;;;;;40.20;24.02;;;102.50;2227.20;;;;;;5096980;28;20039;-87
2023/02/02 03:48:55;;;;;;;36.65;20.02;;;77.70;2227.20;;;;;;5096790;28;20028;-88
2023/02/02 03:51:21;;;;;;;35.83;21.83;;;77.50;2227.20;;;;;;5096536;28;20059;-88
2023/02/02 03:53:47;;;;;;;47.67;26.90;;;77.60;2227.20;;;;;;5092354;28;20032;-88
2023/02/02 03:56:14;;;;;;;53.45;32.53;;;77.70;2227.20;;;;;;5093309;28;20029;-88
2023/02/02 03:58:39;;;;;;;71.35;41.35;;;102.40;2227.20;;;;;;5092887;28;20025;-88
2023/02/02 04:01:09;;;;;;;62.20;36.83;;;102.40;2227.20;;;;;;5096394;28;20031;-89
2023/02/02 04:03:35;;;;;;;80.72;49.42;;;102.40;2227.20;;;;;;5096561;28;20028;-87
2023/02/02 04:06:00;;;;;;;83.35;53.40;;;102.40;2227.20;;;;;;5097355;28;20086;-87
2023/02/02 04:08:27;;;;;;;75.07;44.45;;;102.40;2227.20;;;;;;5096290;28;20032;-87
2023/02/02 04:10:53;;;;;;;75.43;46.67;;;102.40;2227.20;;;;;;5096414;28;20048;-88
2023/02/02 04:13:19;;;;;;;87.40;49.05;;;77.70;2227.20;;;;;;5095313;28;20024;-87
2023/02/02 04:15:44;;;;;;;87.78;50.97;;;77.70;2227.20;;;;;;5096451;28;20119;-88
2023/02/02 04:18:10;;;;;;;76.22;46.47;;;77.70;2227.20;;;;;;5096380;28;20551;-89
2023/02/02 04:20:36;;;;;;;86.93;47.25;;;77.60;2227.20;;;;;;5096213;28;20376;-87
2023/02/02 04:23:02;;;;;;;79.60;45.25;;;77.50;2227.20;;;;;;5096270;28;20035;-88
2023/02/02 04:25:27;;;;;;;130.73;69.85;;;77.50;2227.20;;;;;;5097212;28;20024;-88
2023/02/02 04:27:53;;;;;;;95.25;53.22;;;77.60;2227.20;;;;;;5096376;28;20028;-87
2023/02/02 04:30:19;;;;;;;81.45;47.30;;;77.60;2227.20;;;;;;5095913;28;20020;-88
2023/02/02 04:32:45;;;;;;;84.97;49.60;;;77.70;2227.20;;;;;;5096154;28;20039;-88
2023/02/02 04:35:11;;;;;;;69.78;41.35;;;77.70;2227.20;;;;;;5095964;28;20471;-88
2023/02/02 04:37:36;;;;;;;57.40;35.45;;;77.70;2227.20;;;;;;5095896;28;20035;-87
2023/02/02 04:40:03;;;;;;;60.67;37.50;;;102.40;2227.20;;;;;;5096050;28;20020;-90
2023/02/02 04:42:31;;;;;;;59.47;37.72;;;77.40;2227.20;;;;;;5095764;28;20031;-88
2023/02/02 04:44:56;;;;;;;67.85;37.03;;;102.50;2227.20;;;;;;5089467;28;20036;-89
2023/02/02 04:47:22;;;;;;;61.17;37.55;;;102.50;2227.20;;;;;;5075359;28;20017;-88
2023/02/02 04:49:48;;;;;;;116.95;55.50;;;77.60;2227.20;;;;;;5075211;28;20031;-87
2023/02/02 04:52:13;;;;;;;130.50;68.82;;;77.60;2227.20;;;;;;5075409;28;20134;-88
2023/02/02 04:54:39;;;;;;;169.35;86.93;;;77.70;2227.20;;;;;;5075002;28;20454;-88
2023/02/02 04:57:05;;;;;;;127.22;72.57;;;77.70;2227.20;;;;;;5075224;28;20029;-89
2023/02/02 04:59:30;;;;;;;113.90;66.10;;;77.60;2227.20;;;;;;5075395;28;20063;-88
2023/02/02 05:02:00;;;;;;;121.47;67.63;;;77.70;2227.20;;;;;;5075607;28;20070;-88
2023/02/02 05:04:26;;;;;;;108.72;61.63;;;102.50;2227.20;;;;;;5076626;28;20032;-89
2023/02/02 05:06:52;;;;;;;110.07;59.03;;;102.60;2227.20;;;;;;5092915;28;20500;-89
2023/02/02 05:09:18;;;;;;;97.60;55.03;;;102.60;2227.20;;;;;;5095364;28;20024;-88
2023/02/02 05:11:44;;;;;;;96.93;57.00;;;102.60;2227.20;;;;;;5095050;28;20479;-87
2023/02/02 05:14:11;;;;;;;102.68;57.88;;;102.70;2227.20;;;;;;5095200;28;20039;-89
2023/02/02 05:16:38;;;;;;;81.88;47.63;;;102.50;2227.20;;;;;;5095044;28;20360;-89
2023/02/02 05:19:04;;;;;;;71.57;44.83;;;102.50;2227.20;;;;;;5095137;28;20077;-87
2023/02/02 05:21:30;;;;;;;68.93;41.67;;;77.70;2227.20;;;;;;5095107;28;20024;-88
2023/02/02 05:23:56;;;;;;;42.97;24.15;;;77.60;2227.20;;;;;;5094980;28;20121;-88
2023/02/02 05:26:25;;;;;;;38.05;22.40;;;77.50;2227.20;;;;;;5095039;28;20035;-88
2023/02/02 05:28:51;;;;;;;40.67;23.50;;;77.50;2227.20;;;;;;5094898;28;20024;-88
2023/02/02 05:31:18;;;;;;;61.30;34.42;;;77.40;2227.20;;;;;;5095007;28;20069;-88
2023/02/02 05:33:43;;;;;;;62.17;34.47;;;77.60;2227.20;;;;;;5094624;28;20028;-88
2023/02/02 05:36:10;;;;;;;64.85;35.90;;;77.50;2227.20;;;;;;5094698;28;20104;-89
2023/02/02 05:38:35;;;;;;;61.10;39.40;;;77.70;2227.20;;;;;;5094912;28;20031;-89
2023/02/02 05:41:01;;;;;;;92.00;54.22;;;77.70;2227.20;;;;;;5094932;28;20020;-87
2023/02/02 05:43:29;;;;;;;90.32;51.58;;;77.60;2227.20;;;;;;5094652;28;20471;-87
2023/02/02 05:45:54;;;;;;;68.97;42.35;;;77.70;2227.20;;;;;;5094667;28;20074;-89
2023/02/02 05:48:20;;;;;;;81.28;48.97;;;77.60;2227.20;;;;;;5094454;28;20410;-89
2023/02/02 05:51:11;;;;;;;96.18;55.70;;;77.60;2227.20;;;;;;5094630;28;20035;-87
2023/02/02 05:53:37;;;;;;;164.20;89.57;;;77.60;2227.20;;;;;;5082905;28;20041;-88
2023/02/02 05:56:03;;;;;;;150.98;92.22;;;77.70;2227.20;;;;;;5091022;28;20486;-88
2023/02/02 05:58:28;;;;;;;113.03;72.50;;;77.70;2227.20;;;;;;5090736;28;20078;-89
2023/02/02 06:00:54;;;;;;;94.68;54.22;;;102.40;2227.20;;;;;;5091443;28;20051;-90
2023/02/02 06:03:20;;;;;;;75.25;49.85;;;102.50;2227.20;;;;;;5091197;28;20036;-88
2023/02/02 06:05:46;;;;;;;78.93;49.45;;;102.50;2227.20;;;;;;5091036;28;20039;-87
2023/02/02 06:08:11;;;;;;;97.30;57.97;;;102.60;2227.20;;;;;;5090874;28;20025;-90
2023/02/02 06:10:41;;;;;;;109.93;66.90;;;102.60;2227.20;;;;;;5090721;28;20051;-90
2023/02/02 06:13:07;;;;;;;107.53;66.53;;;102.70;2227.20;;;;;;5090746;28;20040;-88
2023/02/02 06:15:34;;;;;;;101.22;62.97;;;77.60;2227.20;;;;;;5090693;28;20129;-88
2023/02/02 06:18:00;;;;;;;71.78;45.08;;;102.60;2227.20;;;;;;5090705;28;20031;-89
2023/02/02 06:20:26;;;;;;;48.85;33.30;;;102.60;2227.20;;;;;;5090823;28;20028;-88
2023/02/02 06:22:52;;;;;;;42.00;25.25;;;102.90;2227.20;;;;;;5090783;28;20099;-88
2023/02/02 06:25:18;;;;;;;29.55;20.83;;;102.60;2227.20;;;;;;5090576;28;20060;-87
2023/02/02 06:27:48;;;;;;;116.82;69.35;;;102.50;2227.20;;;;;;5090656;28;20035;-88
2023/02/02 06:30:14;;;;;;;229.73;135.55;;;102.40;2227.20;;;;;;5090502;28;20465;-86
2023/02/02 06:32:40;;;;;;;154.38;91.75;;;102.50;2227.20;;;;;;5090205;28;20029;-87
2023/02/02 06:35:06;;;;;;;119.03;72.45;;;102.40;2227.20;;;;;;5090516;28;20035;-89
2023/02/02 06:37:33;;;;;;;74.75;40.40;;;102.50;2227.20;;;;;;5090127;28;20115;-88
2023/02/02 06:39:59;;;;;;;81.22;50.00;;;77.60;2227.20;;;;;;5090445;28;20461;-89
2023/02/02 06:42:25;;;;;;;75.88;45.67;;;102.40;2227.20;;;;;;5090226;28;20085;-90
2023/02/02 06:44:50;;;;;;;62.63;36.70;;;77.70;2227.20;;;;;;5092428;28;20032;-86
2023/02/02 06:47:16;;;;;;;81.85;44.17;;;77.70;2227.20;;;;;;5093451;28;20194;-89
2023/02/02 06:49:42;;;;;;;79.47;41.42;;;77.60;2227.20;;;;;;5093211;28;20028;-87
2023/02/02 06:52:08;;;;;;;79.38;38.80;;;77.70;2227.20;;;;;;5074819;28;20043;-88
2023/02/02 06:54:33;;;;;;;75.03;38.67;;;77.60;2227.20;;;;;;5090759;28;20051;-86
2023/02/02 06:56:59;;;;;;;64.07;35.10;;;77.60;2227.20;;;;;;5090621;28;20033;-87
2023/02/02 06:59:25;;;;;;;56.85;36.63;;;77.70;2227.20;;;;;;5090613;28;20024;-86
2023/02/02 07:01:50;;;;;;;63.35;39.17;;;77.70;2227.20;;;;;;5090510;28;20029;-87
2023/02/02 07:04:17;;;;;;;77.93;45.45;;;77.70;2227.20;;;;;;5090046;28;20525;-86
2023/02/02 07:06:43;;;;;;;80.88;46.17;;;102.40;2227.20;;;;;;5090165;28;20029;-87
2023/02/02 07:09:09;;;;;;;78.70;46.28;;;102.40;2227.20;;;;;;5090065;28;20054;-87
2023/02/02 07:11:35;;;;;;;78.25;46.65;;;102.50;2227.20;;;;;;5089655;28;20055;-88
2023/02/02 07:14:02;;;;;;;69.22;40.20;;;102.40;2227.20;;;;;;5089769;28;20048;-86
2023/02/02 07:16:28;;;;;;;62.83;41.95;;;77.70;2227.20;;;;;;5090027;28;20036;-87
2023/02/02 07:18:54;;;;;;;59.10;36.78;;;102.40;2227.20;;;;;;5090200;28;20025;-87
2023/02/02 07:21:23;;;;;;;65.20;45.45;;;77.70;2227.20;;;;;;5094675;28;20024;-86
2023/02/02 07:23:49;;;;;;;53.35;33.97;;;77.70;2227.20;;;;;;5094013;28;20040;-87
2023/02/02 07:26:17;;;;;;;49.30;31.48;;;102.70;2227.20;;;;;;5098345;28;20027;-81
2023/02/02 07:28:43;;;;;;;54.30;33.42;;;102.50;2227.20;;;;;;5105420;28;20059;-81
2023/02/02 07:31:20;;;;;;;52.00;32.25;;;102.40;2227.20;;;;;;5106924;28;20024;-82
2023/02/02 07:33:47;;;;;;;48.45;28.27;;;102.60;2227.20;;;;;;5092186;28;20089;-87
2023/02/02 07:36:15;;;;;;;49.17;29.15;;;102.70;2227.20;;;;;;5091617;28;20065;-88
2023/02/02 07:38:41;;;;;;;67.45;39.75;;;102.70;2227.20;;;;;;5090130;28;20384;-87
2023/02/02 07:41:07;;;;;;;61.22;38.95;;;102.70;2227.20;;;;;;5090260;28;20119;-88
2023/02/02 07:43:33;;;;;;;65.25;37.83;;;102.80;2227.20;;;;;;5090902;28;20068;-87
2023/02/02 07:46:05;;;;;;;53.92;32.72;;;103.00;2227.20;;;;;;5090366;28;20025;-88
2023/02/02 07:48:31;;;;;;;46.05;29.20;;;102.90;2227.20;;;;;;5091039;28;20113;-87
2023/02/02 07:51:05;;;;;;;50.60;28.75;;;102.90;2227.20;;;;;;5093358;28;20056;-88
2023/02/02 07:53:31;;;;;;;48.35;29.83;;;103.00;2227.20;;;;;;5094203;28;20074;-87
2023/02/02 07:56:12;;;;;;;50.50;32.28;;;103.10;2227.20;;;;;;5093408;28;20031;-88
2023/02/02 07:58:38;;;;;;;66.82;43.35;;;103.10;2227.20;;;;;;5093190;28;20029;-86
2023/02/02 08:01:06;;;;;;;45.72;24.27;;;103.20;2227.20;;;;;;5085289;28;20025;-88
2023/02/02 08:03:32;;;;;;;45.53;28.30;;;103.20;2227.20;;;;;;5092812;28;20472;-87
2023/02/02 08:05:58;;;;;;;47.78;31.13;;;103.30;2227.20;;;;;;5092865;28;20032;-87
2023/02/02 08:08:24;;;;;;;51.97;33.28;;;103.30;2227.20;;;;;;5092968;28;20031;-89
2023/02/02 08:10:52;;;;;;;51.58;31.92;;;128.00;2252.80;;;;;;5092742;28;20056;-88
2023/02/02 08:13:18;;;;;;;54.30;34.55;;;128.10;2252.80;;;;;;5092967;28;20051;-88
2023/02/02 08:15:44;;;;;;;40.95;25.58;;;128.20;2252.80;;;;;;5092958;28;20461;-87
2023/02/02 08:18:09;;;;;;;40.40;26.80;;;128.30;2252.80;;;;;;5092772;28;20025;-87
2023/02/02 08:20:35;;;;;;;39.72;26.30;;;128.40;2252.80;;;;;;5093120;28;20035;-88
2023/02/02 08:23:01;;;;;;;37.72;24.08;;;128.40;2252.80;;;;;;5110402;28;20080;-87
2023/02/02 08:25:27;;;;;;;49.40;30.95;;;128.50;2252.80;;;;;;5116962;28;20013;-87
2023/02/02 08:27:54;;;;;;;47.25;31.30;;;128.50;2252.80;;;;;;5116989;28;20013;-90
2023/02/02 08:30:19;;;;;;;51.95;35.85;;;128.60;2252.80;;;;;;5109262;28;20004;-88
2023/02/02 08:32:45;;;;;;;44.72;29.92;;;128.70;2252.80;;;;;;5111865;28;20031;-86
2023/02/02 08:35:11;;;;;;;42.78;27.67;;;128.70;2252.80;;;;;;5104769;28;20459;-86
2023/02/02 08:37:37;;;;;;;43.80;28.23;;;128.60;2252.80;;;;;;5102208;28;20031;-84
2023/02/02 08:40:03;;;;;;;40.22;27.63;;;128.60;2252.80;;;;;;5101973;28;20020;-86
2023/02/02 08:42:29;;;;;;;48.75;33.20;;;128.70;2252.80;;;;;;5099428;28;20055;-83
2023/02/02 08:44:55;;;;;;;46.63;32.03;;;128.70;2252.80;;;;;;5098960;28;20475;-82
2023/02/02 08:47:20;;;;;;;47.85;33.55;;;128.80;2252.80;;;;;;5096744;28;20113;-82
2023/02/02 08:49:46;;;;;;;41.92;29.38;;;128.80;2252.80;;;;;;5094756;28;20478;-81
2023/02/02 08:52:12;;;;;;;56.53;35.92;;;128.90;2252.80;;;;;;5095853;28;20073;-81
2023/02/02 08:54:37;;;;;;;45.20;33.58;;;153.60;2252.80;;;;;;5094305;28;20055;-82
2023/02/02 08:57:03;;;;;;;55.13;37.40;;;153.70;2252.80;;;;;;5094423;28;20035;-81
2023/02/02 08:59:29;;;;;;;47.97;28.35;;;153.70;2252.80;;;;;;5093801;28;20024;-84
2023/02/02 09:01:55;;;;;;;37.40;25.98;;;153.70;2252.80;;;;;;5092428;28;20028;-81
2023/02/02 09:04:21;;;;;;;39.60;27.60;;;153.80;2252.80;;;;;;5094944;28;20036;-80
2023/02/02 09:06:46;;;;;;;33.42;24.63;;;153.90;2252.80;;;;;;5093454;28;20043;-83
2023/02/02 09:09:14;;;;;;;67.20;41.45;;;154.00;2252.80;;;;;;5094064;28;20027;-82
2023/02/02 09:11:41;;;;;;;31.98;22.98;;;154.10;2252.80;;;;;;5093814;28;20075;-80
2023/02/02 09:14:07;;;;;;;40.42;25.63;;;154.20;2252.80;;;;;;5093698;28;20127;-81
2023/02/02 09:16:34;;;;;;;43.15;29.02;;;154.30;2252.80;;;;;;5095368;28;20028;-79
2023/02/02 09:19:00;;;;;;;47.70;29.85;;;179.20;2252.80;;;;;;5093808;28;20024;-83
2023/02/02 09:21:26;;;;;;;39.50;23.80;;;179.20;2252.80;;;;;;5094099;28;20028;-82
2023/02/02 09:23:53;;;;;;;25.27;16.77;;;179.30;2252.80;;;;;;5094988;28;20054;-82
2023/02/02 09:26:20;;;;;;;33.55;20.15;;;179.40;2252.80;;;;;;5094557;28;20383;-84
2023/02/02 09:28:49;;;;;;;24.52;17.13;;;179.50;2252.80;;;;;;5093849;28;20359;-83
2023/02/02 09:31:15;;;;;;;33.60;21.13;;;179.60;2252.80;;;;;;5094981;28;20020;-83
2023/02/02 09:33:41;;;;;;;33.92;20.52;;;179.70;2252.80;;;;;;5094798;28;20416;-82
2023/02/02 09:36:11;;;;;;;31.33;20.80;;;179.80;2252.80;;;;;;5093707;28;20039;-81
2023/02/02 09:38:38;;;;;;;34.47;21.98;;;179.90;2252.80;;;;;;5094022;28;20119;-82
2023/02/02 09:41:20;;;;;;;30.83;22.00;;;179.90;2252.80;;;;;;5094539;28;20095;-82
2023/02/02 09:44:02;;;;;;;55.58;34.55;;;180.10;2252.80;;;;;;5094062;28;20119;-81
2023/02/02 09:46:35;;;;;;;42.95;30.60;;;204.90;2252.80;;;;;;5093710;28;20436;-82
2023/02/02 09:49:06;;;;;;;48.70;33.40;;;204.90;2252.80;;;;;;5094720;28;20056;-84
2023/02/02 09:51:39;;;;;;;47.50;30.10;;;205.00;2252.80;;;;;;5093591;28;20040;-81
2023/02/02 09:54:19;;;;;;;28.13;19.75;;;205.10;2252.80;;;;;;5093574;28;20099;-80
2023/02/02 09:56:54;;;;;;;26.83;18.67;;;205.10;2252.80;;;;;;5093285;28;20460;-81
2023/02/02 09:59:24;;;;;;;31.92;22.30;;;205.10;2252.80;;;;;;5093199;28;20032;-80
2023/02/02 10:01:55;;;;;;;50.25;31.27;;;205.10;2252.80;;;;;;5092191;28;20028;-82
2023/02/02 10:04:35;;;;;;;31.02;21.38;;;205.10;2252.80;;;;;;5092633;28;20036;-82
2023/02/02 10:07:28;;;;;;;28.45;19.33;;;205.40;2252.80;;;;;;5093454;28;20055;-79
2023/02/02 10:09:58;;;;;;;48.13;29.05;;;205.40;2252.80;;;;;;5088299;28;20036;-83
2023/02/02 10:12:46;;;;;;;86.35;45.42;;;205.60;2252.80;;;;;;5092366;28;20154;-82
2023/02/02 10:15:43;;;;;;;40.53;23.27;;;205.70;2252.80;;;;;;5093348;28;20093;-81
2023/02/02 10:18:26;;;;;;;30.08;18.98;;;230.40;2252.80;;;;;;5092967;28;20020;-81
2023/02/02 10:20:58;;;;;;;;;;;230.50;2252.80;;;;;;5093581;28;20020;-81
2023/02/02 10:23:29;;;;;;;29.27;19.67;;;230.70;2252.80;;;;;;5092880;28;19939;-82
2023/02/02 10:26:00;;;;;;;33.92;21.52;;;230.80;2252.80;;;;;;5093159;28;20028;-82
2023/02/02 10:28:44;;;;;;;30.60;22.90;;;230.80;2252.80;;;;;;5093019;28;20020;-81
2023/02/02 10:31:54;;;;;;;31.52;22.65;;;230.90;2252.80;;;;;;5092654;28;20053;-80
2023/02/02 10:34:30;;;;;;;19.80;13.18;;;230.90;2252.80;;;;;;5077032;28;20049;-84
2023/02/02 10:37:06;;;;;;;19.55;13.43;;;231.00;2252.80;;;;;;5092906;28;20618;-82
2023/02/02 10:40:03;;;;;;;44.17;27.98;;;231.00;2252.80;;;;;;5092994;28;20020;-82
2023/02/02 10:43:44;;;;;;;26.90;19.35;;;231.10;2252.80;;;;;;5092759;28;20024;-82
2023/02/02 10:45:32;;;;;;;37.22;22.23;;;231.20;2252.80;;;;;;5093272;28;20039;-82
2023/02/02 10:47:58;;;;;;;20.80;15.48;;;256.00;2252.80;;;;;;5092805;28;20028;-81
2023/02/02 10:50:25;;;;;;;23.13;15.52;;;256.20;2252.80;;;;;;5092760;28;20032;-81
2023/02/02 10:53:00;;;;;;;22.95;17.13;;;256.50;2252.80;;;;;;5092323;28;20120;-81
2023/02/02 10:55:40;;;;;;;16.73;11.57;;;256.50;2252.80;;;;;;5092634;28;20085;-82
2023/02/02 10:58:08;;;;;;;20.20;12.35;;;256.50;2252.80;;;;;;5092381;28;20024;-82
2023/02/02 11:00:50;;;;;;;17.95;10.93;;;256.80;2252.80;;;;;;5092616;28;20063;-80
2023/02/02 11:03:20;;;;;;;26.23;14.93;;;281.70;2278.40;;;;;;5092659;28;20461;-82
2023/02/02 11:08:34;;;;;;;23.38;13.52;;;282.00;2278.40;;;;;;5093917;28;20521;-83
2023/02/02 11:11:20;;;;;;;33.60;20.65;;;282.00;2278.40;;;;;;5093671;28;20073;-86
2023/02/02 11:14:05;;;;;;;19.27;12.55;;;;;;;;;;5092835;28;20093;-82
2023/02/02 11:16:34;;;;;;;27.73;16.25;;;282.40;2278.40;;;;;;5092571;28;20467;-81
2023/02/02 11:19:00;;;;;;;13.27;8.85;;;282.30;2278.40;;;;;;5093523;28;20016;-81
2023/02/02 11:21:30;;;;;;;13.98;8.48;;;282.20;2278.40;;;;;;5092465;28;20021;-82
2023/02/02 11:24:00;;;;;;;9.85;5.38;;;282.10;2278.40;;;;;;5095552;28;20036;-82
2023/02/02 11:26:46;;;;;;;8.65;4.63;;;282.00;2278.40;;;;;;5097703;28;20233;-81
2023/02/02 11:29:26;;;;;;;20.23;9.07;;;282.00;2201.60;;;;;;5096277;28;20050;-81
2023/02/02 11:31:52;;;;;;;17.35;9.43;;;282.00;2252.80;;;;;;5096111;28;20024;-83
2023/02/02 11:34:26;;;;;;;17.77;8.07;;;281.90;2278.40;;;;;;5095712;28;20039;-82
2023/02/02 11:37:12;;;;;;;12.20;7.88;;;281.80;2227.20;;;;;;5097508;28;20030;-82
2023/02/02 11:39:42;;;;;;;10.77;6.82;;;281.90;2252.80;;;;;;5096061;28;20028;-79
2023/02/02 11:42:19;;;;;;;14.07;8.98;;;282.00;2227.20;;;;;;5096912;28;20020;-82
2023/02/02 11:44:56;;;;;;;13.48;8.23;;;281.90;2252.80;;;;;;5095948;28;20035;-85
2023/02/02 11:47:32;;;;;;;19.25;11.43;;;282.10;2201.60;;;;;;5095677;28;20024;-83
2023/02/02 11:50:00;;;;;;;36.10;21.33;;;282.10;2252.80;;;;;;5097714;28;20098;-83
2023/02/02 11:52:29;;;;;;;23.70;15.93;;;282.00;2227.20;;;;;;5096637;28;20050;-82
2023/02/02 11:54:58;;;;;;;24.73;15.60;;;281.90;2278.40;;;;;;5096172;28;20067;-83
2023/02/02 11:57:27;;;;;;;31.45;19.08;;;281.70;2278.40;;;;;;5095886;28;20039;-81
2023/02/02 12:00:17;;;;;;;34.47;21.70;;;256.80;2252.80;;;;;;5095636;28;20028;-80
2023/02/02 12:02:49;;;;;;;22.70;14.65;;;256.70;2252.80;;;;;;5095426;28;20020;-82
2023/02/02 12:05:22;;;;;;;23.60;16.83;;;256.60;2252.80;;;;;;5095599;28;20035;-83
2023/02/02 12:07:48;;;;;;;23.60;14.75;;;256.80;2252.80;;;;;;5095719;28;20100;-82
2023/02/02 12:10:37;;;;;;;32.30;17.17;;;256.90;2252.80;;;;;;5095155;28;20529;-83
2023/02/02 12:13:40;;;;;;;21.50;14.27;;;282.20;2278.40;;;;;;5090785;28;20036;-81
2023/02/02 12:16:41;;;;;;;24.15;17.33;;;282.30;2278.40;;;;;;5085349;28;20040;-84
2023/02/02 12:19:10;;;;;;;33.65;23.50;;;281.90;2278.40;;;;;;5081594;28;20115;-83
2023/02/02 12:21:39;;;;;;;38.63;27.95;;;281.60;2278.40;;;;;;5095233;28;20489;-82
2023/02/02 12:24:23;;;;;;;55.65;38.03;;;256.70;2252.80;;;;;;5095428;28;20032;-84
2023/02/02 12:27:09;;;;;;;43.00;31.33;;;256.50;2252.80;;;;;;5095039;28;20036;-83
2023/02/02 12:30:09;;;;;;;37.33;27.40;;;256.20;2252.80;;;;;;5064188;28;20141;-84